createdAt,value
2023-02-03T00:01:43.558Z,66.91
2023-02-03T00:04:13.736Z,66.92
2023-02-03T00:06:47.300Z,67.23
2023-02-03T00:09:18.262Z,67.16
2023-02-03T00:11:48.700Z,67.06
2023-02-03T00:14:18.815Z,67.12
2023-02-03T00:16:49.160Z,67.02
2023-02-03T00:19:19.544Z,67.00
2023-02-03T00:21:52.296Z,67.05
2023-02-03T00:24:24.220Z,66.58
2023-02-03T00:26:54.326Z,66.26
2023-02-03T00:29:27.796Z,65.79
2023-02-03T00:31:59.156Z,66.29
2023-02-03T00:34:31.735Z,66.40
2023-02-03T00:37:05.215Z,67.01
2023-02-03T00:39:38.719Z,67.20
2023-02-03T00:42:09.694Z,68.08
2023-02-03T00:44:40.036Z,68.18
2023-02-03T00:47:10.276Z,68.52
2023-02-03T00:49:40.628Z,68.54
2023-02-03T00:52:13.390Z,69.37
2023-02-03T00:54:43.681Z,69.12
2023-02-03T00:57:13.842Z,68.67
2023-02-03T00:59:44.343Z,69.50
2023-02-03T01:02:14.537Z,69.39
2023-02-03T01:04:44.926Z,68.78
2023-02-03T01:07:17.963Z,69.25
2023-02-03T01:09:48.355Z,69.12
2023-02-03T01:12:18.608Z,69.70
2023-02-03T01:14:48.893Z,69.25
2023-02-03T01:17:19.499Z,69.10
2023-02-03T01:19:49.727Z,69.48
2023-02-03T01:22:22.675Z,69.25
2023-02-03T01:24:52.846Z,68.89
2023-02-03T01:27:23.230Z,68.90
2023-02-03T01:29:53.479Z,68.97
2023-02-03T01:32:23.768Z,68.82
2023-02-03T01:34:53.945Z,68.71
2023-02-03T01:37:26.856Z,69.05
2023-02-03T01:39:57.736Z,69.05
2023-02-03T01:42:27.996Z,69.05
2023-02-03T01:44:58.599Z,69.24
2023-02-03T01:47:34.033Z,69.34
2023-02-03T01:50:12.571Z,69.18
2023-02-03T01:52:48.294Z,69.96
2023-02-03T01:55:24.301Z,70.45
2023-02-03T01:57:55.334Z,71.01
2023-02-03T02:00:26.114Z,70.97
2023-02-03T02:02:57.830Z,70.07
2023-02-03T02:05:32.771Z,69.70
2023-02-03T02:08:07.221Z,69.84
2023-02-03T02:10:40.225Z,69.52
2023-02-03T02:13:10.752Z,69.83
2023-02-03T02:15:50.604Z,69.61
2023-02-03T02:18:43.547Z,68.87
2023-02-03T02:21:44.295Z,69.27
2023-02-03T02:24:45.105Z,69.71
2023-02-03T02:27:33.859Z,69.38
2023-02-03T02:30:28.808Z,69.61
2023-02-03T02:33:10.325Z,69.90
2023-02-03T02:35:54.765Z,69.97
2023-02-03T02:38:36.115Z,70.25
2023-02-03T02:41:11.654Z,69.35
2023-02-03T02:43:45.573Z,69.46
2023-02-03T02:46:17.630Z,69.44
2023-02-03T02:48:55.321Z,69.28
2023-02-03T02:51:26.759Z,68.73
2023-02-03T02:54:01.733Z,68.96
2023-02-03T02:56:33.625Z,69.25
2023-02-03T02:59:07.416Z,68.79
2023-02-03T03:01:38.174Z,69.21
2023-02-03T03:04:14.934Z,69.34
2023-02-03T03:06:47.984Z,68.95
2023-02-03T03:09:20.690Z,68.93
2023-02-03T03:11:54.033Z,68.96
2023-02-03T03:14:28.691Z,68.87
2023-02-03T03:17:06.058Z,68.53
2023-02-03T03:19:44.935Z,68.51
2023-02-03T03:22:19.078Z,68.75
2023-02-03T03:24:53.528Z,68.68
2023-02-03T03:27:26.530Z,68.35
2023-02-03T03:29:59.901Z,68.53
2023-02-03T03:32:33.142Z,69.05
2023-02-03T03:35:07.616Z,68.92
2023-02-03T03:37:41.409Z,68.68
2023-02-03T03:40:17.280Z,68.49
2023-02-03T03:42:52.059Z,68.15
2023-02-03T03:45:27.710Z,68.41
2023-02-03T03:48:04.028Z,68.25
2023-02-03T03:50:42.245Z,67.88
2023-02-03T03:53:14.979Z,67.74
2023-02-03T03:55:49.568Z,67.54
2023-02-03T03:58:25.376Z,67.11
2023-02-03T04:00:58.934Z,66.87
2023-02-03T04:03:40.513Z,66.81
2023-02-03T04:06:15.884Z,66.62
2023-02-03T04:08:46.166Z,65.80
2023-02-03T04:11:36.839Z,65.83
2023-02-03T04:14:07.505Z,65.75
2023-02-03T04:16:37.656Z,65.12
2023-02-03T04:19:08.621Z,64.99
2023-02-03T04:21:41.710Z,65.05
2023-02-03T04:24:12.179Z,64.78
2023-02-03T04:26:42.473Z,64.51
2023-02-03T04:29:13.010Z,64.39
2023-02-03T04:31:43.421Z,64.13
2023-02-03T04:34:13.817Z,63.99
2023-02-03T04:36:46.723Z,64.03
2023-02-03T04:39:16.901Z,64.17
2023-02-03T04:41:47.114Z,63.79
2023-02-03T04:44:19.663Z,64.00
2023-02-03T04:46:49.897Z,64.32
2023-02-03T04:49:20.572Z,63.62
2023-02-03T04:51:54.618Z,63.28
2023-02-03T04:54:24.530Z,63.28
2023-02-03T04:56:55.395Z,63.44
2023-02-03T04:59:25.700Z,62.91
2023-02-03T05:01:56.116Z,62.69
2023-02-03T05:04:26.597Z,62.58
2023-02-03T05:06:59.644Z,62.75
2023-02-03T05:09:31.185Z,62.72
2023-02-03T05:12:01.370Z,62.73
2023-02-03T05:14:31.817Z,62.86
2023-02-03T05:17:02.045Z,62.44
2023-02-03T05:19:32.511Z,62.48
2023-02-03T05:22:05.294Z,62.99
2023-02-03T05:24:35.590Z,62.76
2023-02-03T05:27:05.859Z,62.80
2023-02-03T05:29:36.266Z,62.50
2023-02-03T05:32:07.140Z,62.17
2023-02-03T05:34:37.501Z,62.16
2023-02-03T05:37:10.328Z,62.82
2023-02-03T05:39:40.847Z,62.24
2023-02-03T05:42:08.534Z,62.06
2023-02-03T05:44:38.839Z,61.82
2023-02-03T05:47:09.059Z,61.61
2023-02-03T05:49:39.505Z,61.32
2023-02-03T05:52:12.725Z,61.28
2023-02-03T05:54:42.904Z,61.05
2023-02-03T05:57:13.746Z,61.05
2023-02-03T05:59:44.234Z,60.72
2023-02-03T06:02:14.528Z,60.67
2023-02-03T06:04:44.880Z,60.38
2023-02-03T06:07:17.710Z,60.29
2023-02-03T06:09:51.009Z,60.04
2023-02-03T06:12:24.681Z,59.48
2023-02-03T06:14:55.112Z,59.87
2023-02-03T06:17:25.381Z,59.46
2023-02-03T06:19:56.517Z,59.17
2023-02-03T06:22:29.403Z,59.48
2023-02-03T06:24:59.687Z,59.05
2023-02-03T06:27:30.416Z,59.23
2023-02-03T06:30:00.722Z,59.22
2023-02-03T06:32:30.849Z,59.11
2023-02-03T06:35:01.176Z,59.02
2023-02-03T06:37:33.940Z,59.09
2023-02-03T06:40:04.674Z,58.43
2023-02-03T06:42:39.388Z,58.59
2023-02-03T06:45:10.677Z,58.46
2023-02-03T06:47:42.822Z,58.09
2023-02-03T06:50:15.202Z,58.04
2023-02-03T06:52:48.172Z,58.06
2023-02-03T06:55:18.495Z,57.98
2023-02-03T06:57:50.419Z,57.67
2023-02-03T07:00:23.147Z,57.61
2023-02-03T07:02:57.059Z,57.10
2023-02-03T07:05:28.545Z,57.53
2023-02-03T07:08:02.002Z,57.02
2023-02-03T07:10:32.330Z,56.63
2023-02-03T07:13:06.510Z,56.33
2023-02-03T07:15:36.570Z,56.79
2023-02-03T07:18:07.175Z,57.03
2023-02-03T07:20:37.525Z,56.91
2023-02-03T07:23:11.402Z,56.52
2023-02-03T07:25:41.986Z,56.20
2023-02-03T07:28:12.977Z,56.22
2023-02-03T07:30:43.448Z,56.29
2023-02-03T07:33:13.832Z,56.22
2023-02-03T07:35:44.042Z,55.85
2023-02-03T07:38:16.982Z,55.57
2023-02-03T07:40:50.390Z,55.18
2023-02-03T07:43:27.773Z,55.39
2023-02-03T07:45:58.114Z,55.36
2023-02-03T07:48:28.350Z,55.02
2023-02-03T07:50:58.606Z,55.12
2023-02-03T07:53:32.075Z,55.06
2023-02-03T07:56:04.042Z,54.85
2023-02-03T07:58:35.025Z,54.66
2023-02-03T08:01:13.614Z,54.52
2023-02-03T08:03:44.523Z,54.38
2023-02-03T08:06:14.839Z,54.74
2023-02-03T08:08:47.779Z,53.99
2023-02-03T08:11:18.630Z,53.97
2023-02-03T08:13:48.764Z,54.18
2023-02-03T08:16:19.052Z,53.38
2023-02-03T08:18:49.487Z,53.56
2023-02-03T08:21:19.686Z,53.38
2023-02-03T08:23:52.516Z,53.33
2023-02-03T08:26:22.648Z,53.39
2023-02-03T08:28:53.299Z,52.92
2023-02-03T08:31:23.658Z,53.02
2023-02-03T08:33:53.917Z,51.75
2023-02-03T08:36:24.606Z,51.42
2023-02-03T08:38:57.394Z,51.49
2023-02-03T08:41:27.786Z,51.13
2023-02-03T08:43:58.173Z,50.47
2023-02-03T08:46:28.867Z,50.25
2023-02-03T08:49:00.829Z,50.33
2023-02-03T08:51:31.945Z,50.46
2023-02-03T08:54:05.001Z,50.29
2023-02-03T08:56:36.020Z,50.29
2023-02-03T08:59:06.414Z,50.43
2023-02-03T09:01:37.331Z,49.86
2023-02-03T09:04:08.563Z,49.88
2023-02-03T09:06:39.338Z,49.22
2023-02-03T09:09:12.185Z,49.61
2023-02-03T09:11:44.319Z,48.79
2023-02-03T09:14:14.592Z,48.81
2023-02-03T09:16:44.832Z,49.26
2023-02-03T09:19:15.809Z,49.71
2023-02-03T09:21:48.000Z,49.12
2023-02-03T09:24:22.571Z,48.74
2023-02-03T09:26:53.081Z,47.95
2023-02-03T09:29:23.482Z,48.11
2023-02-03T09:31:55.061Z,47.17
2023-02-03T09:34:28.094Z,47.07
2023-02-03T09:36:58.356Z,47.14
2023-02-03T09:39:31.300Z,47.09
2023-02-03T09:42:37.005Z,47.19
2023-02-03T09:45:19.016Z,47.17
2023-02-03T09:47:54.179Z,46.64
2023-02-03T09:50:27.187Z,46.13
2023-02-03T09:53:00.402Z,45.84
2023-02-03T09:55:40.027Z,45.99
2023-02-03T09:58:14.788Z,44.93
2023-02-03T10:00:47.391Z,44.87
2023-02-03T10:03:27.382Z,45.14
2023-02-03T10:06:17.019Z,44.64
2023-02-03T10:09:05.013Z,45.04
2023-02-03T10:11:55.067Z,44.48
2023-02-03T10:14:41.910Z,44.13
2023-02-03T10:17:32.493Z,44.38
2023-02-03T10:20:07.881Z,43.82
2023-02-03T10:22:43.818Z,43.20
2023-02-03T10:25:25.185Z,43.11
2023-02-03T10:28:03.091Z,41.76
2023-02-03T10:30:45.700Z,42.31
2023-02-03T10:33:19.331Z,42.82
2023-02-03T10:35:53.633Z,42.42
2023-02-03T10:38:33.872Z,43.37
2023-02-03T10:41:04.960Z,43.91
2023-02-03T10:43:51.983Z,43.40
2023-02-03T10:46:24.522Z,43.61
2023-02-03T10:48:54.777Z,43.87
2023-02-03T10:51:27.799Z,43.99
2023-02-03T10:53:58.029Z,44.44
2023-02-03T10:56:30.218Z,44.38
2023-02-03T10:59:03.924Z,45.45
2023-02-03T11:01:44.748Z,45.62
2023-02-03T11:04:27.781Z,46.08
2023-02-03T11:07:01.971Z,45.87
2023-02-03T11:09:39.543Z,46.04
2023-02-03T11:12:14.072Z,45.95
2023-02-03T11:14:48.902Z,45.86
2023-02-03T11:17:23.116Z,46.46
2023-02-03T11:19:55.123Z,46.90
2023-02-03T11:22:34.265Z,47.41
2023-02-03T11:25:06.798Z,48.26
2023-02-03T11:27:40.180Z,48.13
2023-02-03T11:30:18.284Z,47.66
2023-02-03T11:32:54.457Z,46.92
2023-02-03T11:35:31.139Z,47.55
2023-02-03T11:38:02.801Z,47.31
2023-02-03T11:40:34.775Z,46.76
2023-02-03T11:43:08.588Z,47.37
2023-02-03T11:45:45.370Z,47.97
2023-02-03T11:48:25.892Z,49.04
2023-02-03T11:51:04.017Z,50.88
2023-02-03T11:53:56.589Z,51.66
2023-02-03T11:56:41.899Z,51.70
2023-02-03T11:59:38.566Z,55.50
2023-02-03T12:02:50.160Z,58.33
2023-02-03T12:05:44.217Z,61.32
2023-02-03T12:08:27.584Z,62.48
2023-02-03T12:11:09.717Z,62.92
2023-02-03T12:14:05.114Z,64.05
2023-02-03T12:16:57.715Z,63.81
2023-02-03T12:19:45.150Z,64.43
2023-02-03T12:22:22.709Z,65.09
2023-02-03T12:25:02.703Z,66.10
2023-02-03T12:27:45.057Z,65.32
2023-02-03T12:30:19.939Z,64.80
2023-02-03T12:32:54.576Z,64.95
2023-02-03T12:35:33.963Z,65.99
2023-02-03T12:38:09.939Z,65.81
2023-02-03T12:40:48.233Z,66.19
2023-02-03T12:43:28.098Z,66.71
2023-02-03T12:46:04.147Z,66.72
2023-02-03T12:48:45.190Z,66.40
2023-02-03T12:51:24.925Z,66.39
2023-02-03T12:54:02.059Z,66.36
2023-02-03T12:56:40.191Z,67.24
2023-02-03T12:59:16.996Z,67.15
2023-02-03T13:01:53.226Z,67.49
2023-02-03T13:04:32.139Z,66.78
2023-02-03T13:07:15.853Z,66.06
2023-02-03T13:09:54.407Z,66.53
2023-02-03T13:12:31.920Z,66.87
2023-02-03T13:15:21.791Z,66.78
2023-02-03T13:17:57.382Z,66.46
2023-02-03T13:20:31.534Z,66.47
2023-02-03T13:23:08.125Z,67.12
2023-02-03T13:25:51.140Z,67.21
2023-02-03T13:28:36.106Z,67.40
2023-02-03T13:31:29.501Z,67.48
2023-02-03T13:34:17.509Z,68.13
2023-02-03T13:37:27.305Z,68.28
2023-02-03T13:40:31.763Z,68.28
2023-02-03T13:43:06.253Z,68.05
2023-02-03T13:45:42.764Z,68.43
2023-02-03T13:48:20.675Z,69.56
2023-02-03T13:50:52.685Z,69.84
2023-02-03T13:53:26.194Z,70.15
2023-02-03T13:56:02.747Z,69.76
2023-02-03T13:58:35.127Z,70.04
2023-02-03T14:01:28.339Z,70.18
2023-02-03T14:03:59.463Z,70.22
2023-02-03T14:07:03.409Z,70.87
2023-02-03T14:09:50.282Z,71.35
2023-02-03T14:12:41.562Z,70.93
2023-02-03T14:15:32.097Z,70.93
2023-02-03T14:18:28.022Z,71.31
2023-02-03T14:21:12.193Z,71.47
2023-02-03T14:23:59.188Z,71.71
2023-02-03T14:26:38.750Z,71.52
2023-02-03T14:29:14.030Z,71.64
2023-02-03T14:31:58.585Z,71.66
2023-02-03T14:34:38.031Z,71.82
2023-02-03T14:37:24.670Z,72.21
2023-02-03T14:40:36.236Z,72.10
2023-02-03T14:43:41.657Z,72.17
2023-02-03T14:46:41.600Z,72.30
2023-02-03T14:49:26.762Z,72.44
2023-02-03T14:52:15.183Z,72.33
2023-02-03T14:55:04.217Z,72.39
2023-02-03T14:57:44.074Z,72.36
2023-02-03T15:00:31.729Z,72.84
2023-02-03T15:03:25.719Z,72.99
2023-02-03T15:05:58.841Z,72.90
2023-02-03T15:08:42.360Z,73.05
2023-02-03T15:11:30.032Z,72.80
2023-02-03T15:14:19.526Z,73.41
2023-02-03T15:16:54.235Z,74.02
2023-02-03T15:19:29.840Z,73.79
2023-02-03T15:22:00.535Z,73.36
2023-02-03T15:24:39.754Z,73.48
2023-02-03T15:27:25.071Z,73.95
2023-02-03T15:29:57.527Z,74.15
2023-02-03T15:32:31.868Z,73.62
2023-02-03T15:35:14.681Z,73.89
2023-02-03T15:37:49.933Z,74.27
2023-02-03T15:40:23.663Z,74.08
2023-02-03T15:43:01.014Z,74.54
2023-02-03T15:45:36.014Z,74.36
2023-02-03T15:48:11.339Z,75.27
2023-02-03T15:50:47.344Z,74.90
2023-02-03T15:53:22.668Z,74.79
2023-02-03T15:55:58.724Z,74.51
2023-02-03T15:58:31.822Z,74.83
2023-02-03T16:01:07.003Z,74.85
2023-02-03T16:03:42.415Z,74.25
2023-02-03T16:06:21.432Z,74.74
2023-02-03T16:08:52.778Z,74.99
2023-02-03T16:11:32.140Z,75.11
2023-02-03T16:14:04.369Z,74.95
2023-02-03T16:16:49.308Z,74.99
2023-02-03T16:19:26.706Z,75.35
2023-02-03T16:22:02.755Z,75.56
2023-02-03T16:24:42.677Z,75.45
2023-02-03T16:27:34.134Z,75.74
2023-02-03T16:30:37.034Z,75.20
2023-02-03T16:33:27.875Z,75.69
2023-02-03T16:36:11.233Z,75.26
2023-02-03T16:39:00.322Z,75.48
2023-02-03T16:41:43.071Z,75.61
2023-02-03T16:44:27.147Z,75.63
2023-02-03T16:47:09.802Z,75.91
2023-02-03T16:49:52.572Z,75.80
2023-02-03T16:52:22.927Z,75.69
2023-02-03T16:54:55.828Z,75.52
2023-02-03T16:57:27.644Z,75.77
2023-02-03T16:59:58.333Z,75.25
2023-02-03T17:02:34.979Z,75.52
2023-02-03T17:05:05.505Z,76.28
2023-02-03T17:07:36.014Z,76.21
2023-02-03T17:10:09.865Z,76.31
2023-02-03T17:12:40.738Z,76.40
2023-02-03T17:15:11.885Z,76.82
2023-02-03T17:17:46.294Z,76.50
2023-02-03T17:20:23.033Z,76.74
2023-02-03T17:22:54.848Z,76.28
2023-02-03T17:25:28.157Z,76.73
2023-02-03T17:28:00.858Z,76.66
2023-02-03T17:30:34.710Z,76.38
2023-02-03T17:33:11.829Z,75.86
2023-02-03T17:35:52.751Z,76.00
2023-02-03T17:38:25.520Z,76.12
2023-02-03T17:54:42.291Z,76.29
2023-02-03T17:57:15.255Z,76.65
2023-02-03T17:59:46.512Z,77.01
2023-02-03T18:02:16.925Z,76.65
2023-02-03T18:04:47.431Z,77.33
2023-02-03T18:07:17.895Z,76.94
2023-02-03T18:09:48.696Z,76.62
2023-02-03T18:12:21.900Z,76.26
2023-02-03T18:14:52.670Z,76.82
2023-02-03T18:17:23.279Z,76.15
2023-02-03T18:19:56.174Z,75.74
2023-02-03T18:22:26.672Z,76.18
2023-02-03T18:24:56.979Z,75.68
2023-02-03T18:27:30.226Z,75.79
2023-02-03T18:30:00.919Z,75.93
2023-02-03T18:32:31.275Z,75.66
2023-02-03T18:35:01.903Z,75.68
2023-02-03T18:37:32.764Z,75.89
2023-02-03T18:40:03.123Z,75.90
2023-02-03T18:42:36.115Z,75.48
2023-02-03T18:45:06.889Z,75.85
2023-02-03T18:47:37.766Z,75.81
2023-02-03T18:50:08.820Z,75.65
2023-02-03T18:52:42.365Z,76.54
2023-02-03T18:55:13.964Z,76.31
2023-02-03T18:57:47.759Z,76.16
2023-02-03T19:00:20.015Z,76.45
2023-02-03T19:02:54.496Z,76.14
2023-02-03T19:05:25.520Z,76.14
2023-02-03T19:07:56.226Z,75.99
2023-02-03T19:10:26.584Z,76.44
2023-02-03T19:12:59.968Z,76.12
2023-02-03T19:15:33.690Z,75.96
2023-02-03T19:18:04.524Z,76.43
2023-02-03T19:20:35.442Z,76.19
2023-02-03T19:23:08.822Z,75.84
2023-02-03T19:25:39.457Z,75.98
2023-02-03T19:28:20.126Z,76.20
2023-02-03T19:31:00.059Z,76.06
2023-02-03T19:33:36.448Z,76.14
2023-02-03T19:36:09.568Z,76.09
2023-02-03T19:38:40.751Z,76.14
2023-02-03T19:41:12.380Z,75.86
2023-02-03T19:43:47.541Z,76.29
2023-02-03T19:46:18.418Z,76.33
2023-02-03T19:48:49.386Z,76.21
2023-02-03T19:51:26.918Z,76.00
2023-02-03T19:54:02.342Z,76.05
2023-02-03T19:56:33.078Z,76.19
2023-02-03T19:59:12.153Z,76.31
2023-02-03T20:01:51.794Z,76.47
2023-02-03T20:04:34.167Z,76.21
2023-02-03T20:07:34.394Z,76.09
2023-02-03T20:10:22.729Z,76.12
2023-02-03T20:16:50.415Z,76.32
2023-02-03T20:19:55.110Z,76.47
2023-02-03T20:23:11.002Z,76.08
2023-02-03T20:25:56.060Z,76.07
2023-02-03T20:28:53.533Z,76.43
2023-02-03T20:34:50.387Z,76.14
2023-02-03T20:37:51.855Z,76.29
2023-02-03T20:40:36.196Z,76.71
2023-02-03T20:46:40.652Z,76.55
2023-02-03T20:49:40.652Z,76.69
2023-02-03T20:52:38.290Z,76.57
2023-02-03T20:55:21.053Z,76.64
2023-02-03T20:58:26.671Z,76.72
2023-02-03T21:01:15.454Z,76.82
2023-02-03T21:04:18.657Z,77.96
2023-02-03T21:07:28.461Z,77.45
2023-02-03T21:10:15.349Z,77.99
2023-02-03T21:12:58.622Z,77.94
2023-02-03T21:15:59.773Z,78.47
2023-02-03T21:18:44.859Z,77.75
2023-02-03T21:21:34.981Z,77.48
2023-02-03T21:24:48.349Z,76.97
2023-02-03T21:28:01.233Z,76.70
2023-02-03T21:30:57.307Z,76.24
2023-02-03T21:33:57.034Z,76.42
2023-02-03T21:36:55.072Z,75.27
2023-02-03T21:39:51.706Z,75.35
2023-02-03T21:42:51.698Z,75.69
2023-02-03T21:45:50.230Z,75.51
2023-02-03T21:48:44.738Z,75.83
2023-02-03T21:51:34.478Z,75.59
2023-02-03T21:54:33.889Z,75.59
2023-02-03T21:57:30.465Z,75.85
2023-02-03T22:00:28.427Z,76.14
2023-02-03T22:03:24.830Z,75.99
2023-02-03T22:06:28.865Z,75.87
2023-02-03T22:09:25.467Z,75.28
2023-02-03T22:12:13.925Z,75.66
2023-02-03T22:15:08.660Z,75.79
2023-02-03T22:17:58.696Z,75.98
2023-02-03T22:20:48.969Z,75.38
2023-02-03T22:23:28.818Z,75.52
2023-02-03T22:26:27.734Z,75.65
2023-02-03T22:30:27.984Z,75.92
2023-02-03T22:32:43.772Z,76.24
2023-02-03T22:35:33.570Z,75.92
2023-02-03T22:38:31.368Z,76.13
2023-02-03T22:41:57.681Z,75.84
2023-02-03T22:44:55.327Z,75.95
2023-02-03T22:47:46.551Z,75.95
2023-02-03T22:50:27.120Z,75.65
2023-02-03T22:53:06.104Z,75.96
2023-02-03T22:55:36.461Z,75.96
2023-02-03T22:58:19.247Z,75.82
2023-02-03T23:01:36.815Z,75.77
2023-02-03T23:07:12.307Z,75.90
2023-02-03T23:10:06.545Z,75.90
2023-02-03T23:12:47.470Z,75.55
2023-02-03T23:15:32.246Z,75.98
2023-02-03T23:18:16.258Z,75.35
2023-02-03T23:20:53.007Z,75.53
2023-02-03T23:23:37.609Z,74.89
2023-02-03T23:26:13.467Z,75.12
2023-02-03T23:28:55.202Z,75.44
2023-02-03T23:31:43.428Z,75.44
2023-02-03T23:34:34.032Z,75.27
2023-02-03T23:37:06.746Z,75.08
2023-02-03T23:39:46.479Z,75.16
2023-02-03T23:42:37.495Z,74.98
2023-02-03T23:45:27.289Z,74.78
2023-02-03T23:48:05.937Z,74.50
2023-02-03T23:51:10.562Z,74.35
2023-02-03T23:54:08.538Z,74.55
2023-02-03T23:56:44.904Z,74.07
2023-02-03T23:59:30.574Z,74.26
